Harmony, Washington
Current Conditions -  °F | °C
As of 8:35 AM on Saturday 22 Nov 2014 (Local Time) from KCLS Reporting Station
Light Rain Light Rain  
Wind Chill: 40°   Ceiling: 3300
Heat Index: 43°   Visibility: 4mi
Dew Point: 43°   Wind: 5mph
Humidity: 100%   Direction: 170°S
Pressure: 29.77"   Gusts: NA
Location:  46.5639°N, 122.421°W
Report Text: KCLS 221635Z AUTO 17004KT 4SM -RA OVC033 06/06 A2977 RMK AO2
Loading
Personal Weather Stations






























Interactive Weather Map New forecast layout! Learn more

10-Day Weather Forecast

Advertisements
Track Severe Weather on mobile